Time;durP1;ratioP1;P1;durP2;ratioP2;P2;SDS_P1;SDS_P2;PMS_P1;PMS_P2;Temp;Humidity;BMP_temperature;BMP_pressure;BME280_temperature;BME280_humidity;BME280_pressure;Samples;Min_cycle;Max_cycle;Signal;HPM_P1;HPM_P2
2023/02/02 10:00:47;;;;;;;5.17;2.30;;;;;;;6.94;100.00;99365.50;5130687;27;20569;-86
2023/02/02 10:03:21;;;;;;;6.40;2.37;;;;;;;7.52;100.00;99379.81;5112361;27;38830;-81
2023/02/02 10:05:55;;;;;;;2.40;2.07;;;;;;;7.99;100.00;99369.03;5112371;27;40777;-85
2023/02/02 10:08:31;;;;;;;8.73;2.40;;;;;;;8.45;100.00;99372.25;5112661;27;41686;-84
2023/02/02 10:11:02;;;;;;;6.60;1.83;;;;;;;8.62;100.00;99375.00;5146741;27;41963;-85
2023/02/02 10:13:36;;;;;;;7.20;2.20;;;;;;;8.81;100.00;99385.56;5111987;27;39929;-84
2023/02/02 10:16:12;;;;;;;3.80;1.80;;;;;;;8.79;96.86;99388.25;5126262;27;41959;-84
2023/02/02 10:18:46;;;;;;;8.20;2.07;;;;;;;8.80;96.80;99374.13;5111871;27;41650;-84
2023/02/02 10:21:23;;;;;;;6.10;1.83;;;;;;;8.98;95.55;99383.84;5112126;27;40752;-87
2023/02/02 10:23:53;;;;;;;6.87;2.10;;;;;;;9.18;94.51;99389.94;5129023;27;38793;-89
2023/02/02 10:26:22;;;;;;;5.10;2.00;;;;;;;9.12;92.91;99375.25;5111778;27;40985;-84
2023/02/02 10:29:13;;;;;;;6.27;2.20;;;;;;;9.57;92.92;99395.91;5111813;27;41958;-83
2023/02/02 10:31:56;;;;;;;6.20;2.10;;;;;;;9.84;91.84;99383.09;5111943;27;41135;-82
2023/02/02 10:34:31;;;;;;;6.17;1.73;;;;;;;10.07;91.01;99397.78;5111520;27;39096;-85
2023/02/02 10:37:16;;;;;;;4.33;1.83;;;;;;;10.35;88.76;99413.97;5129091;27;40654;-82
2023/02/02 10:40:09;;;;;;;6.73;2.17;;;;;;;10.49;85.61;99415.03;5145927;27;44352;-85
2023/02/02 10:45:35;;;;;;;4.70;1.60;;;;;;;10.55;84.73;99398.81;5112608;27;39060;-85
2023/02/02 10:48:06;;;;;;;5.40;1.60;;;;;;;10.65;84.38;99406.19;5111407;27;40708;-84
2023/02/02 10:50:35;;;;;;;5.57;1.80;;;;;;;10.81;83.36;99427.41;5128497;27;42624;-85
2023/02/02 10:53:12;;;;;;;3.93;1.60;;;;;;;10.88;82.42;99418.16;5111830;27;41306;-86
2023/02/02 10:55:46;;;;;;;3.87;1.80;;;;;;;10.79;82.22;99384.22;5125961;27;40136;-84
2023/02/02 10:58:23;;;;;;;3.53;1.30;;;;;;;10.98;81.92;99414.09;5125651;27;42340;-83
2023/02/02 11:00:53;;;;;;;2.57;1.33;;;;;;;11.06;80.67;99417.16;5125484;27;42605;-84
2023/02/02 11:03:26;;;;;;;3.10;1.47;;;;;;;11.01;81.33;99434.25;5111321;27;41068;-86
2023/02/02 11:08:42;;;;;;;3.37;1.33;;;;;;;10.84;80.20;99427.25;5127322;27;41877;-86
2023/02/02 11:11:17;;;;;;;3.67;1.50;;;;;;;10.79;80.29;99423.97;5119477;27;42990;-86
2023/02/02 11:13:50;;;;;;;6.40;1.57;;;;;;;10.87;81.30;99426.22;5097395;28;42002;-85
2023/02/02 11:16:27;;;;;;;4.70;1.47;;;;;;;10.92;78.61;99448.00;5131734;27;40417;-83
2023/02/02 11:18:56;;;;;;;1.97;1.30;;;;;;;10.95;79.06;99435.47;5131718;27;40933;-83
2023/02/02 11:21:26;;;;;;;2.23;1.27;;;;;;;11.01;79.58;99429.81;5114571;28;41863;-84
2023/02/02 11:23:57;;;;;;;2.50;1.10;;;;;;;10.99;79.87;99429.06;5114680;28;42792;-83
2023/02/02 11:26:25;;;;;;;2.50;1.20;;;;;;;10.97;79.47;99422.13;5131670;27;41908;-87
2023/02/02 11:28:56;;;;;;;4.03;1.47;;;;;;;10.95;79.92;99422.22;5097360;28;40468;-82
2023/02/02 11:31:32;;;;;;;1.70;1.10;;;;;;;11.02;78.57;99423.56;5132042;27;43151;-84
2023/02/02 11:34:17;;;;;;;2.87;1.60;;;;;;;10.99;78.40;99409.66;5114153;28;41138;-85
2023/02/02 11:37:00;;;;;;;3.87;1.30;;;;;;;11.19;78.96;99427.09;5114593;28;38889;-84
2023/02/02 11:39:29;;;;;;;3.90;1.60;;;;;;;11.43;79.80;99415.09;5097178;28;43367;-83
2023/02/02 11:42:07;;;;;;;4.03;1.67;;;;;;;11.41;76.85;99423.13;5097068;28;41876;-87
2023/02/02 11:44:37;;;;;;;2.33;1.30;;;;;;;11.44;76.97;99407.06;5112767;28;43629;-85
2023/02/02 11:47:06;;;;;;;3.57;1.40;;;;;;;11.64;77.30;99424.47;5096935;28;38621;-86
2023/02/02 11:49:42;;;;;;;4.30;1.53;;;;;;;11.72;74.53;99443.47;5114081;28;41216;-85
2023/02/02 11:52:18;;;;;;;4.10;1.30;;;;;;;12.11;74.47;99434.16;5097070;28;41603;-84
2023/02/02 11:54:49;;;;;;;1.67;1.10;;;;;;;12.13;73.38;99435.75;5096961;28;40825;-86
2023/02/02 11:57:20;;;;;;;2.03;1.20;;;;;;;12.04;73.85;99417.72;5132004;27;39870;-85
2023/02/02 11:59:49;;;;;;;3.43;1.47;;;;;;;12.20;73.52;99412.34;5113441;28;42190;-87
2023/02/02 12:02:30;;;;;;;3.23;1.10;;;;;;;12.30;71.05;99431.25;5096457;28;41940;-85
2023/02/02 12:07:54;;;;;;;2.27;1.13;;;;;;;12.73;69.81;99426.81;5110265;28;20538;-85
2023/02/02 12:10:28;;;;;;;1.13;0.97;;;;;;;13.49;68.83;99449.41;5093265;28;38765;-82
2023/02/02 12:13:04;;;;;;;2.77;1.20;;;;;;;13.25;67.33;99440.34;5129604;27;42289;-83
2023/02/02 12:15:46;;;;;;;3.40;1.17;;;;;;;13.23;66.60;99429.81;5093209;28;41920;-84
2023/02/02 12:18:30;;;;;;;3.00;1.30;;;;;;;13.22;65.81;99443.22;5095045;28;41918;-84
2023/02/02 12:21:04;;;;;;;2.37;1.10;;;;;;;13.18;66.87;99433.72;5096160;28;41421;-84
2023/02/02 12:23:53;;;;;;;5.80;1.30;;;;;;;13.31;65.48;99445.28;5096108;28;41403;-84
2023/02/02 12:26:26;;;;;;;3.13;1.10;;;;;;;13.16;64.94;99455.09;5130187;27;41654;-84
2023/02/02 12:29:22;;;;;;;1.83;1.23;;;;;;;13.09;65.91;99440.47;5097218;28;41105;-84
2023/02/02 12:32:06;;;;;;;2.37;0.90;;;;;;;12.80;66.08;99433.44;5095108;28;39756;-85
2023/02/02 12:34:46;;;;;;;2.70;1.30;;;;;;;12.72;66.61;99443.72;5095123;28;42360;-85
2023/02/02 12:37:26;;;;;;;4.03;1.17;;;;;;;12.59;66.43;99436.50;5093518;28;43857;-84
2023/02/02 12:40:11;;;;;;;4.40;1.53;;;;;;;12.52;67.62;99445.78;5111193;28;42344;-84
2023/02/02 12:42:56;;;;;;;2.50;0.90;;;;;;;12.47;67.85;99453.19;5110040;28;40210;-85
2023/02/02 12:45:43;;;;;;;2.67;1.20;;;;;;;12.14;67.70;99439.25;5090946;28;40667;-84
2023/02/02 12:48:23;;;;;;;3.00;1.20;;;;;;;12.14;67.55;99455.19;5091713;28;41570;-87
2023/02/02 12:51:05;;;;;;;1.23;0.90;;;;;;;12.35;67.64;99442.44;5091504;28;43314;-85
2023/02/02 12:53:46;;;;;;;1.27;0.90;;;;;;;12.17;67.61;99447.91;5095155;28;40135;-87
2023/02/02 12:56:26;;;;;;;3.97;1.67;;;;;;;11.94;67.92;99458.19;5093816;28;40823;-85
2023/02/02 12:59:05;;;;;;;2.50;1.10;;;;;;;11.84;67.99;99466.69;5093632;28;44099;-85
2023/02/02 13:01:44;;;;;;;2.57;1.07;;;;;;;11.74;69.80;99452.22;5092441;28;42765;-84
2023/02/02 13:04:37;;;;;;;1.07;0.90;;;;;;;11.66;69.64;99459.72;5109032;28;39819;-84
2023/02/02 13:07:31;;;;;;;3.07;1.17;;;;;;;11.59;71.36;99445.13;5091970;28;43068;-84
2023/02/02 13:10:08;;;;;;;1.90;0.90;;;;;;;11.83;70.89;99466.75;5093262;28;41292;-84
2023/02/02 13:12:42;;;;;;;2.17;0.90;;;;;;;11.97;70.51;99471.28;5091894;28;43634;-85
2023/02/02 13:15:16;;;;;;;1.97;1.00;;;;;;;11.83;70.65;99470.28;5108801;28;40180;-85
2023/02/02 13:17:49;;;;;;;1.57;0.90;;;;;;;11.58;70.80;99461.97;5085640;28;40745;-84
2023/02/02 13:20:25;;;;;;;1.50;0.90;;;;;;;11.44;71.92;99453.94;5077269;28;41398;-83
2023/02/02 13:22:57;;;;;;;2.20;0.80;;;;;;;11.21;72.25;99465.84;5094498;28;41222;-83
2023/02/02 13:25:30;;;;;;;0.83;0.80;;;;;;;11.21;73.08;99467.63;5077102;28;42622;-83
2023/02/02 13:28:02;;;;;;;1.77;0.90;;;;;;;11.01;74.09;99456.31;5094203;28;41725;-84
2023/02/02 13:30:32;;;;;;;1.97;1.00;;;;;;;10.88;74.45;99471.16;5076973;28;41683;-84
2023/02/02 13:33:06;;;;;;;2.40;1.50;;;;;;;10.66;75.30;99446.78;5076951;28;43040;-84
2023/02/02 13:35:39;;;;;;;1.87;1.03;;;;;;;10.49;75.89;99444.19;5077127;28;39015;-87
2023/02/02 13:38:16;;;;;;;3.63;1.83;;;;;;;10.41;76.52;99447.22;5077266;28;41854;-86
2023/02/02 13:40:45;;;;;;;2.67;1.17;;;;;;;10.50;77.31;99465.28;5111021;28;42967;-85
2023/02/02 13:43:26;;;;;;;4.57;1.10;;;;;;;10.37;77.33;99449.19;5111123;28;40926;-85
2023/02/02 13:46:04;;;;;;;2.50;1.20;;;;;;;10.54;77.72;99464.16;5091638;28;40169;-83
2023/02/02 13:48:40;;;;;;;4.03;1.90;;;;;;;10.51;76.80;99474.91;5076963;28;42115;-83
2023/02/02 13:51:39;;;;;;;2.07;1.20;;;;;;;10.46;77.13;99465.50;5091599;28;42846;-84
2023/02/02 13:54:31;;;;;;;2.40;0.97;;;;;;;10.48;77.37;99471.59;5077035;28;41289;-83
2023/02/02 13:57:12;;;;;;;3.00;1.20;;;;;;;10.29;77.39;99461.94;5110589;28;39040;-86
2023/02/02 14:00:00;;;;;;;3.90;1.33;;;;;;;10.28;78.20;99481.41;5076878;28;40637;-84
2023/02/02 14:02:33;;;;;;;3.90;1.27;;;;;;;10.26;77.84;99488.56;5076463;28;42201;-84
2023/02/02 14:05:04;;;;;;;4.63;1.30;;;;;;;10.09;78.27;99454.16;5110732;28;41031;-84
2023/02/02 14:07:40;;;;;;;2.67;1.00;;;;;;;10.18;78.27;99472.22;5076441;28;38727;-83
2023/02/02 14:10:23;;;;;;;5.07;1.17;;;;;;;10.17;78.46;99483.72;5077269;28;40713;-84
2023/02/02 14:12:52;;;;;;;2.03;1.40;;;;;;;10.11;78.85;99488.47;5093755;28;42208;-83
2023/02/02 14:15:37;;;;;;;3.73;1.20;;;;;;;10.05;79.06;99486.97;5077242;28;42336;-83
2023/02/02 14:18:05;;;;;;;2.67;1.23;;;;;;;10.15;79.93;99509.41;5076814;28;39088;-83
2023/02/02 14:20:45;;;;;;;3.47;1.47;;;;;;;10.19;80.06;99512.78;5087374;28;41850;-83
2023/02/02 14:24:01;;;;;;;2.50;1.17;;;;;;;10.16;79.64;99519.06;5123859;28;42551;-83
2023/02/02 14:26:44;;;;;;;4.00;1.07;;;;;;;10.16;79.77;99524.34;5066636;28;41700;-83
2023/02/02 14:29:35;;;;;;;4.23;1.03;;;;;;;10.12;80.42;99525.47;5088533;28;43271;-84
2023/02/02 14:32:41;;;;;;;2.57;1.30;;;;;;;10.03;80.70;99517.94;5077575;28;42288;-86
2023/02/02 14:35:58;;;;;;;2.00;1.23;;;;;;;9.99;81.23;99527.00;5076113;28;44516;-83
2023/02/02 14:39:10;;;;;;;3.10;1.07;;;;;;;9.98;82.17;99530.56;5038684;28;41119;-84
2023/02/02 14:44:37;;;;;;;1.47;1.10;;;;;;;9.86;82.77;99531.19;5076730;28;43502;-83
2023/02/02 14:47:49;;;;;;;1.70;1.07;;;;;;;9.86;83.34;99542.63;5076554;28;41699;-83
2023/02/02 14:50:23;;;;;;;1.90;1.57;;;;;;;9.78;83.75;99538.59;5110626;28;42100;-84
2023/02/02 14:53:05;;;;;;;2.63;1.30;;;;;;;9.70;84.38;99542.50;5110851;28;38931;-83
2023/02/02 14:55:34;;;;;;;2.43;1.17;;;;;;;9.63;84.99;99535.78;5076046;28;42301;-82
2023/02/02 14:58:04;;;;;;;3.37;1.33;;;;;;;9.65;84.97;99549.78;5093479;28;43000;-85
2023/02/02 15:00:35;;;;;;;3.53;1.20;;;;;;;9.60;85.39;99545.66;5075995;28;43895;-84
2023/02/02 15:03:46;;;;;;;2.77;1.60;;;;;;;9.49;86.27;99532.09;5110158;28;38960;-85
2023/02/02 15:06:26;;;;;;;1.97;1.20;;;;;;;9.54;86.69;99557.34;5075153;28;43207;-83
2023/02/02 15:09:32;;;;;;;2.10;1.37;;;;;;;9.51;87.22;99557.53;5109492;28;41974;-85
2023/02/02 15:12:25;;;;;;;2.30;1.13;;;;;;;9.47;87.63;99566.53;5075428;28;41165;-83
2023/02/02 15:15:00;;;;;;;3.93;1.57;;;;;;;9.40;87.91;99567.72;5075870;28;40318;-83
2023/02/02 15:17:39;;;;;;;1.87;1.30;;;;;;;9.29;88.40;99552.34;5075899;28;40295;-83
2023/02/02 15:20:19;;;;;;;1.80;1.10;;;;;;;9.27;88.81;99561.31;5075661;28;41605;-84
2023/02/02 15:22:55;;;;;;;2.73;1.50;;;;;;;9.33;88.65;99576.88;5076068;28;41085;-84
2023/02/02 15:25:26;;;;;;;2.97;1.70;;;;;;;9.27;89.29;99580.63;5092692;28;39228;-84
2023/02/02 15:27:59;;;;;;;3.97;1.40;;;;;;;9.24;89.38;99579.94;5123760;27;42486;-83
2023/02/02 15:30:32;;;;;;;2.07;1.33;;;;;;;9.25;89.82;99584.31;5075491;28;42778;-83
2023/02/02 15:33:06;;;;;;;1.83;1.50;;;;;;;9.15;90.54;99575.09;5109345;28;42446;-83
2023/02/02 15:35:35;;;;;;;4.40;1.70;;;;;;;9.17;90.66;99595.19;5075210;28;39201;-83
2023/02/02 15:38:08;;;;;;;4.03;1.47;;;;;;;9.13;90.95;99587.50;5092219;28;43166;-85
2023/02/02 15:40:37;;;;;;;3.00;1.60;;;;;;;9.15;91.26;99604.16;5091902;28;44651;-85
2023/02/02 15:43:08;;;;;;;2.80;1.90;;;;;;;9.05;91.41;99600.19;5075154;28;41280;-85
2023/02/02 15:45:43;;;;;;;1.90;1.43;;;;;;;9.14;91.28;99616.50;5075594;28;39845;-84
2023/02/02 15:48:24;;;;;;;3.27;1.30;;;;;;;8.99;91.80;99601.31;5075010;28;40804;-84
2023/02/02 15:50:54;;;;;;;3.93;1.63;;;;;;;9.00;91.64;99603.91;5074869;28;43330;-84
2023/02/02 15:53:26;;;;;;;4.73;1.70;;;;;;;9.12;91.74;99630.69;5088990;28;43086;-85
2023/02/02 15:55:55;;;;;;;4.80;1.87;;;;;;;9.09;92.06;99628.19;5123591;27;39801;-86
2023/02/02 15:58:27;;;;;;;4.77;1.67;;;;;;;9.03;91.84;99637.22;5075158;28;42018;-83
2023/02/02 16:00:58;;;;;;;1.40;1.30;;;;;;;9.05;92.18;99647.75;5075194;28;41717;-83
2023/02/02 16:03:33;;;;;;;2.80;1.70;;;;;;;8.90;92.75;99634.25;5092320;28;42003;-82
2023/02/02 16:06:06;;;;;;;3.27;1.70;;;;;;;8.95;92.81;99648.16;5075056;28;38730;-84
2023/02/02 16:08:38;;;;;;;4.40;1.53;;;;;;;8.92;92.71;99653.56;5091798;28;40879;-84
2023/02/02 16:11:09;;;;;;;2.00;1.30;;;;;;;8.84;93.51;99650.38;5074627;28;41933;-82
2023/02/02 16:13:39;;;;;;;2.67;1.40;;;;;;;8.93;93.71;99664.97;5088494;28;43115;-82
2023/02/02 16:16:22;;;;;;;1.90;1.30;;;;;;;8.92;94.01;99658.84;5108532;27;41828;-84
2023/02/02 16:19:10;;;;;;;1.53;1.40;;;;;;;8.90;93.99;99665.97;5075081;28;40839;-83
2023/02/02 16:21:46;;;;;;;1.23;1.13;;;;;;;8.85;94.59;99672.38;5092752;28;42923;-85
2023/02/02 16:24:20;;;;;;;1.70;1.60;;;;;;;8.87;94.55;99678.47;5091580;28;43474;-83
2023/02/02 16:26:50;;;;;;;2.23;1.50;;;;;;;8.87;94.71;99687.25;5108025;28;39790;-84
2023/02/02 16:29:18;;;;;;;2.63;1.57;;;;;;;8.71;95.03;99665.03;5074519;28;41807;-83
2023/02/02 16:31:48;;;;;;;3.17;1.80;;;;;;;8.71;95.13;99672.97;5074263;28;42518;-82
2023/02/02 16:34:17;;;;;;;1.67;1.57;;;;;;;8.81;95.40;99690.13;5074378;28;42690;-83
2023/02/02 16:37:05;;;;;;;3.20;1.50;;;;;;;8.75;95.92;99681.63;5090961;28;38967;-82
2023/02/02 16:39:33;;;;;;;2.93;1.80;;;;;;;8.71;95.73;99686.16;5074238;28;42356;-82
2023/02/02 16:42:11;;;;;;;2.77;1.97;;;;;;;8.78;95.87;99700.81;5073736;28;41797;-83
2023/02/02 16:44:41;;;;;;;3.83;1.70;;;;;;;8.79;95.70;99705.19;5073931;28;42557;-83
2023/02/02 16:47:33;;;;;;;3.53;1.60;;;;;;;8.79;95.56;99705.19;5073805;28;41353;-83
2023/02/02 16:50:34;;;;;;;2.47;1.80;;;;;;;8.78;96.14;99708.75;5107835;28;43427;-82
2023/02/02 16:53:05;;;;;;;2.10;1.60;;;;;;;8.74;96.13;99717.72;5017879;28;42339;-83
2023/02/02 16:55:34;;;;;;;3.43;1.80;;;;;;;8.74;95.86;99723.00;5036910;28;42120;-84
2023/02/02 16:58:04;;;;;;;2.00;1.67;;;;;;;8.38;95.72;99674.34;5046206;28;38559;-83
2023/02/02 17:00:32;;;;;;;2.00;1.50;;;;;;;8.78;96.11;99729.03;5063852;28;42330;-83
2023/02/02 17:03:07;;;;;;;2.13;1.43;;;;;;;8.69;95.71;99719.69;5090643;28;43183;-84
2023/02/02 17:05:50;;;;;;;2.43;1.70;;;;;;;8.57;96.13;99699.06;5071885;28;41351;-82
2023/02/02 17:08:27;;;;;;;4.23;1.70;;;;;;;8.68;96.21;99717.09;5087285;28;39719;-82
2023/02/02 17:11:03;;;;;;;1.70;1.60;;;;;;;8.68;96.09;99720.59;5067075;28;41909;-83
2023/02/02 17:13:39;;;;;;;2.33;2.10;;;;;;;8.78;96.07;99740.44;5071888;28;43706;-83
2023/02/02 17:16:11;;;;;;;3.10;1.70;;;;;;;8.65;96.39;99728.69;5086273;28;42218;-82
2023/02/02 17:18:39;;;;;;;2.67;1.93;;;;;;;8.57;96.37;99704.34;5072116;28;40397;-85
2023/02/02 17:21:10;;;;;;;1.87;1.73;;;;;;;8.67;96.39;99725.94;5071254;28;40813;-87
2023/02/02 17:23:40;;;;;;;2.80;1.90;;;;;;;8.62;96.62;99734.06;5085915;28;42752;-88
2023/02/02 17:26:09;;;;;;;4.23;1.90;;;;;;;8.44;96.58;99708.41;5071477;28;43714;-88
2023/02/02 17:28:39;;;;;;;3.93;2.00;;;;;;;8.63;96.79;99739.31;5071408;28;39297;-86
2023/02/02 17:31:08;;;;;;;5.10;2.60;;;;;;;8.55;97.00;99732.59;5071048;28;42119;-87
2023/02/02 17:33:37;;;;;;;4.20;2.50;;;;;;;8.69;96.89;99756.66;5070917;28;41902;-85
2023/02/02 17:36:06;;;;;;;6.50;3.00;;;;;;;8.60;97.07;99752.63;5070976;28;42402;-87
2023/02/02 17:38:35;;;;;;;5.13;3.07;;;;;;;8.67;96.92;99766.41;5066922;28;40610;-87
2023/02/02 17:41:06;;;;;;;5.83;2.83;;;;;;;8.60;97.31;99751.75;5094657;28;41765;-90
2023/02/02 17:43:34;;;;;;;2.67;1.80;;;;;;;8.61;97.18;99770.19;5076199;28;41601;-86
2023/02/02 17:46:03;;;;;;;2.83;1.60;;;;;;;8.62;97.22;99771.91;5075838;28;43565;-85
2023/02/02 17:48:31;;;;;;;1.93;1.50;;;;;;;8.59;97.61;99765.88;5094051;28;39817;-84
2023/02/02 17:51:02;;;;;;;2.60;1.67;;;;;;;8.56;97.40;99766.00;5092721;28;41082;-84
2023/02/02 17:53:30;;;;;;;2.13;1.67;;;;;;;8.65;97.63;99786.78;5075858;28;42791;-84
2023/02/02 17:55:57;;;;;;;3.57;1.60;;;;;;;8.51;97.77;99775.91;5092675;28;42348;-84
2023/02/02 17:58:27;;;;;;;3.63;1.60;;;;;;;8.48;97.65;99762.81;5075800;28;40415;-82
2023/02/02 18:01:01;;;;;;;4.13;1.90;;;;;;;8.11;97.36;99692.97;5075797;28;40680;-83
2023/02/02 18:03:33;;;;;;;1.70;1.43;;;;;;;8.47;97.28;99750.53;5075496;28;41690;-83
2023/02/02 18:06:04;;;;;;;1.83;1.33;;;;;;;8.50;97.00;99750.41;5090517;28;42548;-83
2023/02/02 18:08:33;;;;;;;2.50;1.60;;;;;;;8.67;96.84;99782.25;5075821;28;39988;-83
2023/02/02 18:11:01;;;;;;;3.93;2.40;;;;;;;8.59;96.38;99757.97;5076165;28;41198;-83
2023/02/02 18:13:31;;;;;;;2.60;1.90;;;;;;;8.58;96.45;99777.34;5092739;28;42844;-83
2023/02/02 18:15:59;;;;;;;2.70;1.70;;;;;;;8.68;96.46;99791.91;5076016;28;42377;-83
2023/02/02 18:18:28;;;;;;;2.30;1.50;;;;;;;8.70;96.17;99794.50;5092762;28;39949;-83
2023/02/02 18:20:57;;;;;;;4.07;1.87;;;;;;;8.70;96.04;99800.63;5110154;28;40718;-82
2023/02/02 18:23:25;;;;;;;2.03;1.70;;;;;;;8.73;95.66;99799.66;5109233;28;41922;-82
2023/02/02 18:25:53;;;;;;;2.77;1.57;;;;;;;8.40;95.53;99739.38;5092649;28;41870;-83
2023/02/02 18:28:21;;;;;;;2.93;1.70;;;;;;;8.70;95.18;99783.94;5072135;28;38881;-82
2023/02/02 18:30:50;;;;;;;2.23;1.80;;;;;;;8.71;95.44;99789.16;5089273;28;40140;-83
2023/02/02 18:33:18;;;;;;;3.40;1.90;;;;;;;8.60;94.91;99775.53;5088840;28;41920;-83
2023/02/02 18:35:47;;;;;;;4.23;1.90;;;;;;;8.67;95.14;99782.25;5055867;28;41509;-83
2023/02/02 18:38:16;;;;;;;2.37;2.10;;;;;;;8.68;94.91;99784.00;5075681;28;39254;-83
2023/02/02 18:40:44;;;;;;;5.07;2.30;;;;;;;8.71;94.92;99791.78;5075779;28;41981;-82
2023/02/02 18:43:12;;;;;;;4.10;2.00;;;;;;;8.72;94.35;99777.66;5072079;28;41752;-83
2023/02/02 18:45:40;;;;;;;4.00;2.50;;;;;;;8.72;93.87;99788.25;5055459;28;42491;-83
2023/02/02 18:48:09;;;;;;;3.97;2.07;;;;;;;8.73;93.71;99789.09;5058886;28;39126;-83
2023/02/02 18:50:38;;;;;;;3.73;2.03;;;;;;;8.74;93.11;99786.41;5075445;28;40859;-83
2023/02/02 18:53:06;;;;;;;4.53;2.10;;;;;;;8.70;92.92;99781.28;5074963;28;42668;-83
2023/02/02 18:55:37;;;;;;;5.10;2.70;;;;;;;8.69;92.67;99772.50;5075199;28;41417;-83
2023/02/02 18:58:06;;;;;;;2.70;2.27;;;;;;;8.68;91.61;99776.06;5071486;28;38537;-83
2023/02/02 19:00:34;;;;;;;4.13;1.57;;;;;;;8.69;90.52;99787.50;5071758;28;40767;-83
2023/02/02 19:03:02;;;;;;;4.87;1.70;;;;;;;8.65;90.57;99776.22;5074699;28;42853;-83
